Time;durP1;ratioP1;P1;durP2;ratioP2;P2;SDS_P1;SDS_P2;PMS_P1;PMS_P2;Temp;Humidity;BMP_temperature;BMP_pressure;BME280_temperature;BME280_humidity;BME280_pressure;Samples;Min_cycle;Max_cycle;Signal;HPM_P1;HPM_P2
2023/07/19 00:00:11;;;;;;;;;;;;;;;;;;7367787;19;810;-63
2023/07/19 00:02:42;;;;;;;;;;;;;;;;;;7374158;19;1086;-63
2023/07/19 00:05:10;;;;;;;;;;;;;;;;;;7370141;19;1826;-63
2023/07/19 00:07:38;;;;;;;;;;;;;;;;;;7366486;19;1871;-63
2023/07/19 00:10:06;;;;;;;;;;;;;;;;;;7367927;19;831;-63
2023/07/19 00:12:34;;;;;;;;;;;;;;;;;;7368223;19;833;-63
2023/07/19 00:15:02;;;;;;;;;;;;;;;;;;7369012;19;851;-63
2023/07/19 00:17:31;;;;;;;;;;;;;;;;;;7366450;19;1324;-63
2023/07/19 00:19:59;;;;;;;;;;;;;;;;;;7367765;19;850;-64
2023/07/19 00:22:27;;;;;;;;;;;;;;;;;;7368805;19;814;-64
2023/07/19 00:24:55;;;;;;;;;;;;;;;;;;7368083;19;744;-63
2023/07/19 00:27:24;;;;;;;;;;;;;;;;;;7366764;19;1337;-63
2023/07/19 00:29:52;;;;;;;;;;;;;;;;;;7363487;19;1912;-63
2023/07/19 00:32:20;;;;;;;;;;;;;;;;;;7367820;19;821;-63
2023/07/19 00:34:48;;;;;;;;;;;;;;;;;;7367220;19;800;-63
2023/07/19 00:37:16;;;;;;;;;;;;;;;;;;7364358;19;1306;-64
2023/07/19 00:39:45;;;;;;;;;;;;;;;;;;7365666;19;1032;-64
2023/07/19 00:42:14;;;;;;;;;;;;;;;;;;7368718;19;1608;-64
2023/07/19 00:44:43;;;;;;;;;;;;;;;;;;7368371;19;858;-63
2023/07/19 00:47:12;;;;;;;;;;;;;;;;;;7364043;19;1229;-64
2023/07/19 00:49:40;;;;;;;;;;;;;;;;;;7363235;19;1855;-64
2023/07/19 00:52:08;;;;;;;;;;;;;;;;;;7368472;19;911;-62
2023/07/19 00:54:37;;;;;;;;;;;;;;;;;;7368584;19;1985;-64
2023/07/19 00:57:06;;;;;;;;;;;;;;;;;;7368098;19;1673;-64
2023/07/19 00:59:35;;;;;;;;;;;;;;;;;;7367690;19;1784;-64
2023/07/19 01:02:03;;;;;;;;;;;;;;;;;;7368294;19;2028;-64
2023/07/19 01:04:31;;;;;;;;;;;;;;;;;;7370767;19;1532;-64
2023/07/19 01:06:59;;;;;;;;;;;;;;;;;;7364701;19;1365;-64
2023/07/19 01:09:27;;;;;;;;;;;;;;;;;;7366968;19;1854;-63
2023/07/19 01:11:56;;;;;;;;;;;;;;;;;;7366775;19;757;-63
2023/07/19 01:14:24;;;;;;;;;;;;;;;;;;7366030;19;807;-64
2023/07/19 01:16:53;;;;;;;;;;;;;;;;;;7365370;19;1405;-64
2023/07/19 01:19:21;;;;;;;;;;;;;;;;;;7364799;19;815;-64
2023/07/19 01:21:50;;;;;;;;;;;;;;;;;;7365156;19;860;-64
2023/07/19 01:24:18;;;;;;;;;;;;;;;;;;7366222;19;855;-63
2023/07/19 01:26:46;;;;;;;;;;;;;;;;;;7366424;19;1330;-65
2023/07/19 01:29:14;;;;;;;;;;;;;;;;;;7363627;19;1853;-64
2023/07/19 01:31:42;;;;;;;;;;;;;;;;;;7365916;19;794;-64
2023/07/19 01:34:10;;;;;;;;;;;;;;;;;;7366124;19;1815;-64
2023/07/19 01:36:38;;;;;;;;;;;;;;;;;;7365519;19;2057;-64
2023/07/19 01:39:06;;;;;;;;;;;;;;;;;;7368768;19;1836;-64
2023/07/19 01:41:35;;;;;;;;;;;;;;;;;;7366562;19;1938;-64
2023/07/19 01:44:03;;;;;;;;;;;;;;;;;;7368757;19;1508;-64
2023/07/19 01:46:31;;;;;;;;;;;;;;;;;;7366233;19;1843;-64
2023/07/19 01:48:59;;;;;;;;;;;;;;;;;;7361857;19;1865;-64
2023/07/19 01:51:29;;;;;;;;;;;;;;;;;;7368247;19;1796;-64
2023/07/19 01:53:57;;;;;;;;;;;;;;;;;;7368213;19;1858;-64
2023/07/19 01:56:26;;;;;;;;;;;;;;;;;;7367002;19;1857;-64
2023/07/19 01:58:54;;;;;;;;;;;;;;;;;;7365242;19;1825;-69
2023/07/19 02:01:22;;;;;;;;;;;;;;;;;;7366683;19;1833;-64
2023/07/19 02:03:50;;;;;;;;;;;;;;;;;;7367674;19;1757;-64
2023/07/19 02:06:18;;;;;;;;;;;;;;;;;;7366330;19;1830;-64
2023/07/19 02:08:46;;;;;;;;;;;;;;;;;;7365782;19;1904;-64
2023/07/19 02:11:14;;;;;;;;;;;;;;;;;;7368258;19;1912;-64
2023/07/19 02:13:42;;;;;;;;;;;;;;;;;;7366672;19;1746;-64
2023/07/19 02:16:11;;;;;;;;;;;;;;;;;;7365847;19;1922;-64
2023/07/19 02:18:39;;;;;;;;;;;;;;;;;;7365442;19;1747;-64
2023/07/19 02:21:07;;;;;;;;;;;;;;;;;;7368586;19;1837;-64
2023/07/19 02:23:35;;;;;;;;;;;;;;;;;;7369775;19;1664;-64
2023/07/19 02:26:03;;;;;;;;;;;;;;;;;;7365711;19;1659;-64
2023/07/19 02:28:32;;;;;;;;;;;;;;;;;;7365775;19;1865;-64
2023/07/19 02:31:00;;;;;;;;;;;;;;;;;;7367872;19;1711;-64
2023/07/19 02:33:28;;;;;;;;;;;;;;;;;;7365754;19;1728;-64
2023/07/19 02:35:56;;;;;;;;;;;;;;;;;;7366368;19;1787;-63
2023/07/19 02:38:25;;;;;;;;;;;;;;;;;;7364638;19;1953;-63
2023/07/19 02:40:53;;;;;;;;;;;;;;;;;;7367392;19;1712;-64
2023/07/19 02:43:22;;;;;;;;;;;;;;;;;;7365678;19;2031;-63
2023/07/19 02:45:50;;;;;;;;;;;;;;;;;;7366831;19;1668;-64
2023/07/19 02:48:18;;;;;;;;;;;;;;;;;;7364756;19;1861;-63
2023/07/19 02:50:46;;;;;;;;;;;;;;;;;;7364777;19;1931;-63
2023/07/19 02:53:14;;;;;;;;;;;;;;;;;;7364928;19;1735;-64
2023/07/19 02:55:42;;;;;;;;;;;;;;;;;;7364166;19;2178;-64
2023/07/19 02:58:10;;;;;;;;;;;;;;;;;;7364534;19;1910;-64
2023/07/19 03:00:38;;;;;;;;;;;;;;;;;;7368903;19;1827;-63
2023/07/19 03:03:07;;;;;;;;;;;;;;;;;;7371735;19;1719;-64
2023/07/19 03:05:40;;;;;;;;;;;;;;;;;;7371698;19;1778;-63
2023/07/19 03:08:08;;;;;;;;;;;;;;;;;;7370374;19;1605;-62
2023/07/19 03:10:36;;;;;;;;;;;;;;;;;;7366761;19;1834;-63
2023/07/19 03:13:04;;;;;;;;;;;;;;;;;;7370559;19;778;-62
2023/07/19 03:15:33;;;;;;;;;;;;;;;;;;7368582;19;806;-63
2023/07/19 03:18:01;;;;;;;;;;;;;;;;;;7365980;19;816;-62
2023/07/19 03:20:30;;;;;;;;;;;;;;;;;;7371467;19;1629;-62
2023/07/19 03:22:58;;;;;;;;;;;;;;;;;;7368422;19;793;-62
2023/07/19 03:25:27;;;;;;;;;;;;;;;;;;7370363;19;788;-63
2023/07/19 03:27:55;;;;;;;;;;;;;;;;;;7366259;19;1288;-63
2023/07/19 03:30:23;;;;;;;;;;;;;;;;;;7365717;19;1798;-60
2023/07/19 03:32:51;;;;;;;;;;;;;;;;;;7369487;19;711;-62
2023/07/19 03:35:20;;;;;;;;;;;;;;;;;;7369003;19;2098;-62
2023/07/19 03:37:48;;;;;;;;;;;;;;;;;;7367417;19;2145;-62
2023/07/19 03:40:16;;;;;;;;;;;;;;;;;;7369357;19;2043;-62
2023/07/19 03:42:45;;;;;;;;;;;;;;;;;;7369737;19;1716;-62
2023/07/19 03:45:13;;;;;;;;;;;;;;;;;;7369840;19;1710;-63
2023/07/19 03:47:42;;;;;;;;;;;;;;;;;;7366420;19;1740;-60
2023/07/19 03:50:11;;;;;;;;;;;;;;;;;;7368411;19;1850;-61
2023/07/19 03:52:39;;;;;;;;;;;;;;;;;;7370368;19;2224;-62
2023/07/19 03:55:07;;;;;;;;;;;;;;;;;;7370752;19;1613;-62
2023/07/19 03:57:37;;;;;;;;;;;;;;;;;;7365847;19;1700;-63
2023/07/19 04:00:06;;;;;;;;;;;;;;;;;;7372420;19;1461;-63
2023/07/19 04:02:45;;;;;;;;;;;;;;;;;;7369422;19;1934;-63
2023/07/19 04:05:16;;;;;;;;;;;;;;;;;;7369269;19;1943;-62
2023/07/19 04:07:44;;;;;;;;;;;;;;;;;;7366567;19;2075;-63
2023/07/19 04:10:13;;;;;;;;;;;;;;;;;;7369623;19;1853;-64
2023/07/19 04:12:41;;;;;;;;;;;;;;;;;;7368012;19;2047;-64
2023/07/19 04:15:09;;;;;;;;;;;;;;;;;;7367764;19;1934;-63
2023/07/19 04:17:38;;;;;;;;;;;;;;;;;;7367285;19;1666;-64
2023/07/19 04:20:06;;;;;;;;;;;;;;;;;;7370088;19;1569;-64
2023/07/19 04:22:34;;;;;;;;;;;;;;;;;;7368745;19;1827;-64
2023/07/19 04:25:03;;;;;;;;;;;;;;;;;;7370605;19;1581;-64
2023/07/19 04:27:31;;;;;;;;;;;;;;;;;;7365607;19;1896;-63
2023/07/19 04:29:59;;;;;;;;;;;;;;;;;;7367601;19;1907;-63
2023/07/19 04:32:28;;;;;;;;;;;;;;;;;;7368212;19;1688;-63
2023/07/19 04:34:56;;;;;;;;;;;;;;;;;;7368921;19;1674;-63
2023/07/19 04:37:24;;;;;;;;;;;;;;;;;;7370441;19;1818;-63
2023/07/19 04:39:52;;;;;;;;;;;;;;;;;;7366823;19;2134;-64
2023/07/19 04:42:21;;;;;;;;;;;;;;;;;;7366844;19;2117;-64
2023/07/19 04:44:50;;;;;;;;;;;;;;;;;;7370697;19;1633;-63
2023/07/19 04:47:18;;;;;;;;;;;;;;;;;;7366402;19;1724;-63
2023/07/19 04:49:46;;;;;;;;;;;;;;;;;;7366201;19;1851;-62
2023/07/19 04:52:14;;;;;;;;;;;;;;;;;;7368870;19;1711;-62
2023/07/19 04:54:42;;;;;;;;;;;;;;;;;;7368561;19;1766;-63
2023/07/19 04:57:10;;;;;;;;;;;;;;;;;;7367790;19;1725;-60
2023/07/19 04:59:38;;;;;;;;;;;;;;;;;;7368823;19;1764;-63
2023/07/19 05:02:07;;;;;;;;;;;;;;;;;;7367480;19;1868;-62
2023/07/19 05:04:35;;;;;;;;;;;;;;;;;;7371179;19;1755;-62
2023/07/19 05:07:04;;;;;;;;;;;;;;;;;;7364884;19;1293;-62
2023/07/19 05:09:34;;;;;;;;;;;;;;;;;;7367595;19;1851;-62
2023/07/19 05:12:02;;;;;;;;;;;;;;;;;;7367171;19;814;-62
2023/07/19 05:14:31;;;;;;;;;;;;;;;;;;7366788;19;810;-62
2023/07/19 05:16:59;;;;;;;;;;;;;;;;;;7364910;19;1262;-60
2023/07/19 05:19:27;;;;;;;;;;;;;;;;;;7366359;19;876;-63
2023/07/19 05:21:55;;;;;;;;;;;;;;;;;;7369282;19;1849;-62
2023/07/19 05:24:24;;;;;;;;;;;;;;;;;;7367991;19;870;-62
2023/07/19 05:26:52;;;;;;;;;;;;;;;;;;7365177;19;1354;-61
2023/07/19 05:29:20;;;;;;;;;;;;;;;;;;7366722;19;1838;-62
2023/07/19 05:31:49;;;;;;;;;;;;;;;;;;7369458;19;1612;-62
2023/07/19 05:34:17;;;;;;;;;;;;;;;;;;7370340;19;1487;-62
2023/07/19 05:36:45;;;;;;;;;;;;;;;;;;7365802;19;1670;-61
2023/07/19 05:39:14;;;;;;;;;;;;;;;;;;7367436;19;1609;-62
2023/07/19 05:41:42;;;;;;;;;;;;;;;;;;7367706;19;1711;-62
2023/07/19 05:44:10;;;;;;;;;;;;;;;;;;7368985;19;1735;-62
2023/07/19 05:46:38;;;;;;;;;;;;;;;;;;7366086;19;1801;-62
2023/07/19 05:49:06;;;;;;;;;;;;;;;;;;7367991;19;1885;-62
2023/07/19 05:51:34;;;;;;;;;;;;;;;;;;7368591;19;1852;-62
2023/07/19 05:54:06;;;;;;;;;;;;;;;;;;7363078;19;1764;-62
2023/07/19 05:56:34;;;;;;;;;;;;;;;;;;7365626;19;1989;-60
2023/07/19 05:59:05;;;;;;;;;;;;;;;;;;7368247;19;1670;-61
2023/07/19 06:01:33;;;;;;;;;;;;;;;;;;7368545;19;1712;-60
2023/07/19 06:04:01;;;;;;;;;;;;;;;;;;7368768;19;1812;-60
2023/07/19 06:06:29;;;;;;;;;;;;;;;;;;7366108;19;2038;-62
2023/07/19 06:08:57;;;;;;;;;;;;;;;;;;7367943;19;1810;-62
2023/07/19 06:11:25;;;;;;;;;;;;;;;;;;7364690;19;1841;-61
2023/07/19 06:13:54;;;;;;;;;;;;;;;;;;7368244;19;1730;-62
2023/07/19 06:16:22;;;;;;;;;;;;;;;;;;7365669;19;1810;-61
2023/07/19 06:18:50;;;;;;;;;;;;;;;;;;7366016;19;1767;-62
2023/07/19 06:21:18;;;;;;;;;;;;;;;;;;7368617;19;1824;-60
2023/07/19 06:23:46;;;;;;;;;;;;;;;;;;7368584;19;1558;-60
2023/07/19 06:26:14;;;;;;;;;;;;;;;;;;7365624;19;2109;-62
2023/07/19 06:28:42;;;;;;;;;;;;;;;;;;7366234;19;1703;-61
2023/07/19 06:31:11;;;;;;;;;;;;;;;;;;7365368;19;1953;-62
2023/07/19 06:33:39;;;;;;;;;;;;;;;;;;7367299;19;1863;-61
2023/07/19 06:36:07;;;;;;;;;;;;;;;;;;7371104;19;1754;-62
2023/07/19 06:38:36;;;;;;;;;;;;;;;;;;7372843;19;1751;-62
2023/07/19 06:41:04;;;;;;;;;;;;;;;;;;7372268;19;2050;-62
2023/07/19 06:43:33;;;;;;;;;;;;;;;;;;7374149;19;2185;-59
2023/07/19 06:46:01;;;;;;;;;;;;;;;;;;7371499;19;1432;-61
2023/07/19 06:48:29;;;;;;;;;;;;;;;;;;7370045;19;853;-61
2023/07/19 06:50:58;;;;;;;;;;;;;;;;;;7370087;19;1838;-61
2023/07/19 06:53:26;;;;;;;;;;;;;;;;;;7370472;19;897;-62
2023/07/19 06:55:55;;;;;;;;;;;;;;;;;;7371011;19;1277;-62
2023/07/19 06:58:24;;;;;;;;;;;;;;;;;;7369970;19;850;-60
2023/07/19 07:00:52;;;;;;;;;;;;;;;;;;7369666;19;846;-62
2023/07/19 07:03:21;;;;;;;;;;;;;;;;;;7371178;19;752;-61
2023/07/19 07:05:49;;;;;;;;;;;;;;;;;;7369129;19;1929;-60
2023/07/19 07:08:17;;;;;;;;;;;;;;;;;;7370729;19;1865;-62
2023/07/19 07:10:45;;;;;;;;;;;;;;;;;;7372989;19;1835;-61
2023/07/19 07:13:14;;;;;;;;;;;;;;;;;;7369681;19;2078;-63
2023/07/19 07:15:43;;;;;;;;;;;;;;;;;;7374127;19;1451;-61
2023/07/19 07:18:11;;;;;;;;;;;;;;;;;;7369660;19;2087;-60
2023/07/19 07:20:39;;;;;;;;;;;;;;;;;;7373145;19;1460;-61
2023/07/19 07:23:07;;;;;;;;;;;;;;;;;;7372815;19;1678;-61
2023/07/19 07:25:35;;;;;;;;;;;;;;;;;;7373634;19;1240;-62
2023/07/19 07:28:04;;;;;;;;;;;;;;;;;;7366839;19;1361;-63
2023/07/19 07:30:32;;;;;;;;;;;;;;;;;;7369483;19;1877;-63
2023/07/19 07:33:01;;;;;;;;;;;;;;;;;;7369409;19;801;-63
2023/07/19 07:35:29;;;;;;;;;;;;;;;;;;7373956;19;1663;-61
2023/07/19 07:37:57;;;;;;;;;;;;;;;;;;7370853;19;1653;-59
2023/07/19 07:40:25;;;;;;;;;;;;;;;;;;7368760;19;877;-61
2023/07/19 07:42:53;;;;;;;;;;;;;;;;;;7370069;19;1692;-62
2023/07/19 07:45:21;;;;;;;;;;;;;;;;;;7372363;19;1695;-61
2023/07/19 07:47:49;;;;;;;;;;;;;;;;;;7366203;19;1722;-63
2023/07/19 07:50:19;;;;;;;;;;;;;;;;;;7370273;19;1857;-60
2023/07/19 07:52:47;;;;;;;;;;;;;;;;;;7369763;19;864;-61
2023/07/19 07:55:15;;;;;;;;;;;;;;;;;;7368972;19;872;-61
2023/07/19 07:57:43;;;;;;;;;;;;;;;;;;7366994;19;1251;-60
2023/07/19 08:00:15;;;;;;;;;;;;;;;;;;7368436;19;804;-61
2023/07/19 08:02:43;;;;;;;;;;;;;;;;;;7368989;19;775;-60
2023/07/19 08:05:11;;;;;;;;;;;;;;;;;;7368166;19;875;-61
2023/07/19 08:07:39;;;;;;;;;;;;;;;;;;7366509;19;1234;-60
2023/07/19 08:10:07;;;;;;;;;;;;;;;;;;7367509;19;1846;-61
2023/07/19 08:12:35;;;;;;;;;;;;;;;;;;7368450;19;788;-63
2023/07/19 08:15:03;;;;;;;;;;;;;;;;;;7369380;19;999;-61
2023/07/19 08:17:32;;;;;;;;;;;;;;;;;;7367429;19;1276;-62
2023/07/19 08:20:00;;;;;;;;;;;;;;;;;;7368963;19;795;-62
2023/07/19 08:22:33;;;;;;;;;;;;;;;;;;7370565;19;777;-61
2023/07/19 08:25:01;;;;;;;;;;;;;;;;;;7369549;19;843;-61
2023/07/19 08:27:30;;;;;;;;;;;;;;;;;;7369211;19;1285;-62
2023/07/19 08:29:59;;;;;;;;;;;;;;;;;;7370635;19;1822;-62
2023/07/19 08:32:28;;;;;;;;;;;;;;;;;;7370097;19;935;-62
2023/07/19 08:34:56;;;;;;;;;;;;;;;;;;7368873;19;794;-61
2023/07/19 08:37:24;;;;;;;;;;;;;;;;;;7366377;19;1325;-63
2023/07/19 08:39:52;;;;;;;;;;;;;;;;;;7366896;19;853;-62
2023/07/19 08:42:20;;;;;;;;;;;;;;;;;;7368200;19;801;-62
2023/07/19 08:44:49;;;;;;;;;;;;;;;;;;7366970;19;778;-61
2023/07/19 08:47:17;;;;;;;;;;;;;;;;;;7364227;19;1258;-62
2023/07/19 08:49:45;;;;;;;;;;;;;;;;;;7366246;19;811;-62
2023/07/19 08:52:13;;;;;;;;;;;;;;;;;;7366228;19;1842;-63
2023/07/19 08:54:42;;;;;;;;;;;;;;;;;;7367795;19;815;-61
2023/07/19 08:57:10;;;;;;;;;;;;;;;;;;7363646;19;1328;-63
2023/07/19 08:59:38;;;;;;;;;;;;;;;;;;7365458;19;806;-63
2023/07/19 09:02:06;;;;;;;;;;;;;;;;;;7366913;19;810;-61
2023/07/19 09:04:34;;;;;;;;;;;;;;;;;;7367177;19;811;-60
2023/07/19 09:07:02;;;;;;;;;;;;;;;;;;7365821;19;1322;-61
2023/07/19 09:09:30;;;;;;;;;;;;;;;;;;7366043;19;806;-60
2023/07/19 09:11:58;;;;;;;;;;;;;;;;;;7364429;19;1837;-62
2023/07/19 09:14:27;;;;;;;;;;;;;;;;;;7366786;19;994;-63
2023/07/19 09:16:55;;;;;;;;;;;;;;;;;;7365468;19;1328;-61
2023/07/19 09:19:23;;;;;;;;;;;;;;;;;;7366580;19;839;-62
2023/07/19 09:21:51;;;;;;;;;;;;;;;;;;7367054;19;853;-61
2023/07/19 09:24:19;;;;;;;;;;;;;;;;;;7367194;19;798;-61
2023/07/19 09:26:47;;;;;;;;;;;;;;;;;;7365102;19;1288;-61
2023/07/19 09:29:15;;;;;;;;;;;;;;;;;;7364871;19;1687;-62
2023/07/19 09:31:44;;;;;;;;;;;;;;;;;;7366984;19;1845;-63
2023/07/19 09:34:12;;;;;;;;;;;;;;;;;;7370904;19;1461;-62
2023/07/19 09:36:40;;;;;;;;;;;;;;;;;;7365018;19;1325;-60
2023/07/19 09:39:08;;;;;;;;;;;;;;;;;;7365156;19;852;-62
2023/07/19 09:41:36;;;;;;;;;;;;;;;;;;7366652;19;906;-63
2023/07/19 09:44:09;;;;;;;;;;;;;;;;;;7366209;19;867;-62
2023/07/19 09:46:37;;;;;;;;;;;;;;;;;;7365605;19;1235;-61
2023/07/19 09:49:05;;;;;;;;;;;;;;;;;;7366191;19;1816;-62
2023/07/19 09:51:34;;;;;;;;;;;;;;;;;;7367432;19;1849;-61
2023/07/19 09:54:02;;;;;;;;;;;;;;;;;;7367816;19;1666;-60
2023/07/19 09:56:30;;;;;;;;;;;;;;;;;;7367711;19;1662;-61
2023/07/19 09:58:58;;;;;;;;;;;;;;;;;;7365542;19;2029;-62
2023/07/19 10:01:26;;;;;;;;;;;;;;;;;;7365942;19;1873;-62
2023/07/19 10:03:54;;;;;;;;;;;;;;;;;;7366834;19;1751;-62
2023/07/19 10:06:23;;;;;;;;;;;;;;;;;;7367549;19;1664;-61
2023/07/19 10:08:51;;;;;;;;;;;;;;;;;;7367097;19;791;-62
2023/07/19 10:11:19;;;;;;;;;;;;;;;;;;7361487;19;1848;-60
2023/07/19 10:13:47;;;;;;;;;;;;;;;;;;7368554;19;1375;-62
2023/07/19 10:16:15;;;;;;;;;;;;;;;;;;7363818;19;1649;-64
2023/07/19 10:18:43;;;;;;;;;;;;;;;;;;7366141;19;1859;-63
2023/07/19 10:21:12;;;;;;;;;;;;;;;;;;7369518;19;1648;-62
2023/07/19 10:23:40;;;;;;;;;;;;;;;;;;7364775;19;869;-62
2023/07/19 10:26:08;;;;;;;;;;;;;;;;;;7364433;19;1391;-62
2023/07/19 10:28:38;;;;;;;;;;;;;;;;;;7363923;19;810;-62
2023/07/19 10:31:07;;;;;;;;;;;;;;;;;;7364078;19;1832;-62
2023/07/19 10:33:36;;;;;;;;;;;;;;;;;;7363572;19;889;-62
2023/07/19 10:36:04;;;;;;;;;;;;;;;;;;7364433;19;1285;-63
2023/07/19 10:38:32;;;;;;;;;;;;;;;;;;7363662;19;786;-62
2023/07/19 10:41:01;;;;;;;;;;;;;;;;;;7364981;19;813;-62
2023/07/19 10:43:29;;;;;;;;;;;;;;;;;;7364298;19;797;-63
2023/07/19 10:45:59;;;;;;;;;;;;;;;;;;7364173;19;1258;-61
2023/07/19 10:48:27;;;;;;;;;;;;;;;;;;7364321;19;795;-62
2023/07/19 10:50:55;;;;;;;;;;;;;;;;;;7363810;19;1853;-62
2023/07/19 10:53:23;;;;;;;;;;;;;;;;;;7364244;19;849;-62
2023/07/19 10:55:51;;;;;;;;;;;;;;;;;;7363958;19;1335;-62
2023/07/19 10:58:19;;;;;;;;;;;;;;;;;;7363121;19;786;-62
2023/07/19 11:00:47;;;;;;;;;;;;;;;;;;7364063;19;817;-61
2023/07/19 11:03:16;;;;;;;;;;;;;;;;;;7363452;19;809;-63
2023/07/19 11:05:44;;;;;;;;;;;;;;;;;;7363148;19;1356;-62
2023/07/19 11:08:12;;;;;;;;;;;;;;;;;;7363002;19;806;-62
2023/07/19 11:10:40;;;;;;;;;;;;;;;;;;7363998;19;1846;-62
2023/07/19 11:13:08;;;;;;;;;;;;;;;;;;7363724;19;848;-61
2023/07/19 11:15:36;;;;;;;;;;;;;;;;;;7363847;19;972;-62
2023/07/19 11:18:05;;;;;;;;;;;;;;;;;;7361073;19;1386;-60
2023/07/19 11:20:35;;;;;;;;;;;;;;;;;;7364324;19;831;-63
2023/07/19 11:23:05;;;;;;;;;;;;;;;;;;7371233;19;933;-62
2023/07/19 11:25:33;;;;;;;;;;;;;;;;;;7370882;19;853;-63
2023/07/19 11:28:01;;;;;;;;;;;;;;;;;;7368592;19;1226;-63
2023/07/19 11:30:29;;;;;;;;;;;;;;;;;;7369932;19;826;-62
2023/07/19 11:32:57;;;;;;;;;;;;;;;;;;7367883;19;1849;-64
2023/07/19 11:35:25;;;;;;;;;;;;;;;;;;7370242;19;783;-63
2023/07/19 11:37:54;;;;;;;;;;;;;;;;;;7366621;19;1339;-62
2023/07/19 11:40:22;;;;;;;;;;;;;;;;;;7368571;19;826;-62
2023/07/19 11:42:51;;;;;;;;;;;;;;;;;;7369028;19;840;-61
2023/07/19 11:45:20;;;;;;;;;;;;;;;;;;7369433;19;874;-62
2023/07/19 11:47:48;;;;;;;;;;;;;;;;;;7365541;19;1333;-62
2023/07/19 11:50:16;;;;;;;;;;;;;;;;;;7368390;19;713;-61
2023/07/19 11:52:43;;;;;;;;;;;;;;;;;;7364629;19;2084;-64
2023/07/19 11:55:12;;;;;;;;;;;;;;;;;;7369296;19;1994;-62
2023/07/19 11:57:40;;;;;;;;;;;;;;;;;;7370674;19;1597;-60
2023/07/19 12:00:09;;;;;;;;;;;;;;;;;;7372384;19;1657;-62
2023/07/19 12:02:37;;;;;;;;;;;;;;;;;;7369356;19;1996;-61
2023/07/19 12:05:05;;;;;;;;;;;;;;;;;;7369951;19;1804;-60
2023/07/19 12:07:34;;;;;;;;;;;;;;;;;;7368848;19;2191;-61
2023/07/19 12:10:02;;;;;;;;;;;;;;;;;;7369821;19;1800;-61
2023/07/19 12:12:30;;;;;;;;;;;;;;;;;;7368013;19;1846;-62
2023/07/19 12:14:58;;;;;;;;;;;;;;;;;;7369545;19;1744;-63
2023/07/19 12:17:26;;;;;;;;;;;;;;;;;;7369904;19;1904;-61
2023/07/19 12:19:54;;;;;;;;;;;;;;;;;;7370381;19;1632;-61
2023/07/19 12:22:22;;;;;;;;;;;;;;;;;;7371092;19;1842;-63
2023/07/19 12:24:51;;;;;;;;;;;;;;;;;;7368766;19;1993;-62
2023/07/19 12:27:19;;;;;;;;;;;;;;;;;;7366635;19;1762;-65
2023/07/19 12:29:47;;;;;;;;;;;;;;;;;;7368719;19;1711;-64
2023/07/19 12:32:15;;;;;;;;;;;;;;;;;;7366851;19;1838;-64
2023/07/19 12:34:43;;;;;;;;;;;;;;;;;;7368625;19;1585;-64
2023/07/19 12:37:12;;;;;;;;;;;;;;;;;;7368310;19;1633;-64
2023/07/19 12:39:40;;;;;;;;;;;;;;;;;;7368745;19;1980;-64
2023/07/19 12:42:08;;;;;;;;;;;;;;;;;;7368511;19;1712;-65
2023/07/19 12:44:36;;;;;;;;;;;;;;;;;;7367891;19;1866;-63
2023/07/19 12:47:04;;;;;;;;;;;;;;;;;;7368889;19;1595;-63
2023/07/19 12:49:32;;;;;;;;;;;;;;;;;;7369246;19;1912;-64
2023/07/19 12:52:01;;;;;;;;;;;;;;;;;;7367542;19;1874;-62
2023/07/19 12:54:29;;;;;;;;;;;;;;;;;;7368773;19;1316;-61
2023/07/19 12:56:57;;;;;;;;;;;;;;;;;;7364391;19;1275;-65
2023/07/19 12:59:25;;;;;;;;;;;;;;;;;;7365910;19;1034;-65
2023/07/19 13:01:53;;;;;;;;;;;;;;;;;;7366023;19;800;-65
2023/07/19 13:04:23;;;;;;;;;;;;;;;;;;7366962;19;802;-65
2023/07/19 13:06:54;;;;;;;;;;;;;;;;;;7365129;19;1235;-65
2023/07/19 13:09:22;;;;;;;;;;;;;;;;;;7366574;19;765;-64
2023/07/19 13:11:50;;;;;;;;;;;;;;;;;;7365922;19;1834;-64
2023/07/19 13:14:18;;;;;;;;;;;;;;;;;;7366928;19;1003;-64
2023/07/19 13:16:46;;;;;;;;;;;;;;;;;;7365857;19;1270;-64
2023/07/19 13:19:15;;;;;;;;;;;;;;;;;;7365764;19;857;-63
2023/07/19 13:21:43;;;;;;;;;;;;;;;;;;7366213;19;854;-64
2023/07/19 13:24:11;;;;;;;;;;;;;;;;;;7364004;19;1857;-64
2023/07/19 13:26:39;;;;;;;;;;;;;;;;;;7366722;19;2057;-63
2023/07/19 13:29:07;;;;;;;;;;;;;;;;;;7370211;19;1618;-64
2023/07/19 13:31:36;;;;;;;;;;;;;;;;;;7368677;19;1858;-65
2023/07/19 13:34:04;;;;;;;;;;;;;;;;;;7370441;19;1511;-64
2023/07/19 13:36:32;;;;;;;;;;;;;;;;;;7364797;19;1286;-63
2023/07/19 13:39:00;;;;;;;;;;;;;;;;;;7365181;19;1890;-63
2023/07/19 13:41:28;;;;;;;;;;;;;;;;;;7367799;19;1618;-63
2023/07/19 13:43:56;;;;;;;;;;;;;;;;;;7369082;19;1669;-62
2023/07/19 13:46:24;;;;;;;;;;;;;;;;;;7365131;19;1704;-63
2023/07/19 13:48:53;;;;;;;;;;;;;;;;;;7369722;19;1554;-62
2023/07/19 13:51:21;;;;;;;;;;;;;;;;;;7366727;19;2114;-63
2023/07/19 13:53:49;;;;;;;;;;;;;;;;;;7364521;19;1999;-62
2023/07/19 13:56:17;;;;;;;;;;;;;;;;;;7367679;19;1468;-62
2023/07/19 13:58:46;;;;;;;;;;;;;;;;;;7366180;19;1962;-62
2023/07/19 14:01:14;;;;;;;;;;;;;;;;;;7368889;19;1640;-62
2023/07/19 14:03:42;;;;;;;;;;;;;;;;;;7368854;19;1710;-62
2023/07/19 14:06:10;;;;;;;;;;;;;;;;;;7369438;19;1447;-61
2023/07/19 14:08:38;;;;;;;;;;;;;;;;;;7364936;19;779;-62
2023/07/19 14:11:07;;;;;;;;;;;;;;;;;;7364572;19;1572;-62
2023/07/19 14:13:35;;;;;;;;;;;;;;;;;;7365402;19;1892;-63
2023/07/19 14:16:03;;;;;;;;;;;;;;;;;;7367001;19;1919;-62
2023/07/19 14:18:31;;;;;;;;;;;;;;;;;;7365593;19;1556;-63
2023/07/19 14:20:59;;;;;;;;;;;;;;;;;;7363357;19;788;-62
2023/07/19 14:23:28;;;;;;;;;;;;;;;;;;7366806;19;1456;-61
2023/07/19 14:25:56;;;;;;;;;;;;;;;;;;7368641;19;1377;-63
2023/07/19 14:28:24;;;;;;;;;;;;;;;;;;7366136;19;2113;-63
2023/07/19 14:30:52;;;;;;;;;;;;;;;;;;7366038;19;2018;-62
2023/07/19 14:33:21;;;;;;;;;;;;;;;;;;7364534;19;1871;-62
2023/07/19 14:35:49;;;;;;;;;;;;;;;;;;7368767;19;1656;-63
2023/07/19 14:38:18;;;;;;;;;;;;;;;;;;7363076;19;2078;-62
2023/07/19 14:40:46;;;;;;;;;;;;;;;;;;7366428;19;1723;-62
2023/07/19 14:43:14;;;;;;;;;;;;;;;;;;7368070;19;2127;-62
2023/07/19 14:45:42;;;;;;;;;;;;;;;;;;7368297;19;1668;-61
2023/07/19 14:48:10;;;;;;;;;;;;;;;;;;7363356;19;873;-61
2023/07/19 14:50:38;;;;;;;;;;;;;;;;;;7364764;19;699;-61
2023/07/19 14:53:06;;;;;;;;;;;;;;;;;;7362064;19;1859;-62
2023/07/19 14:55:34;;;;;;;;;;;;;;;;;;7367100;19;1962;-62
2023/07/19 14:58:03;;;;;;;;;;;;;;;;;;7371295;19;1704;-63
2023/07/19 15:00:31;;;;;;;;;;;;;;;;;;7374004;19;1307;-63
2023/07/19 15:02:59;;;;;;;;;;;;;;;;;;7371596;19;1742;-62
2023/07/19 15:05:27;;;;;;;;;;;;;;;;;;7373328;19;1722;-62
2023/07/19 15:07:55;;;;;;;;;;;;;;;;;;7367560;19;1408;-63
2023/07/19 15:10:24;;;;;;;;;;;;;;;;;;7369040;19;871;-61
2023/07/19 15:12:52;;;;;;;;;;;;;;;;;;7371350;19;2151;-62
2023/07/19 15:15:20;;;;;;;;;;;;;;;;;;7373004;19;1665;-62
2023/07/19 15:17:49;;;;;;;;;;;;;;;;;;7367688;19;1341;-61
2023/07/19 15:20:17;;;;;;;;;;;;;;;;;;7370393;19;2082;-61
2023/07/19 15:22:45;;;;;;;;;;;;;;;;;;7373462;19;1678;-62
2023/07/19 15:25:15;;;;;;;;;;;;;;;;;;7369638;19;919;-62
2023/07/19 15:27:43;;;;;;;;;;;;;;;;;;7371593;19;1647;-62
2023/07/19 15:30:11;;;;;;;;;;;;;;;;;;7373022;19;1714;-62
2023/07/19 15:32:39;;;;;;;;;;;;;;;;;;7371021;19;2113;-63
2023/07/19 15:35:07;;;;;;;;;;;;;;;;;;7370544;19;1862;-63
2023/07/19 15:37:35;;;;;;;;;;;;;;;;;;7371079;19;1632;-62
2023/07/19 15:40:03;;;;;;;;;;;;;;;;;;7371419;19;1756;-62
2023/07/19 15:42:32;;;;;;;;;;;;;;;;;;7370542;19;1474;-63
2023/07/19 15:45:00;;;;;;;;;;;;;;;;;;7367610;19;758;-64
2023/07/19 15:47:29;;;;;;;;;;;;;;;;;;7366767;19;1270;-64
2023/07/19 15:49:57;;;;;;;;;;;;;;;;;;7367704;19;1302;-63
2023/07/19 15:52:25;;;;;;;;;;;;;;;;;;7368381;19;1849;-63
2023/07/19 15:54:53;;;;;;;;;;;;;;;;;;7369279;19;806;-63
2023/07/19 15:57:21;;;;;;;;;;;;;;;;;;7367368;19;1342;-63
2023/07/19 15:59:49;;;;;;;;;;;;;;;;;;7368673;19;1727;-63
2023/07/19 16:02:17;;;;;;;;;;;;;;;;;;7368734;19;2024;-63
2023/07/19 16:04:45;;;;;;;;;;;;;;;;;;7368509;19;1927;-63
2023/07/19 16:07:14;;;;;;;;;;;;;;;;;;7368935;19;1657;-63
2023/07/19 16:09:42;;;;;;;;;;;;;;;;;;7367040;19;817;-64
2023/07/19 16:12:10;;;;;;;;;;;;;;;;;;7370115;19;1845;-64
2023/07/19 16:14:38;;;;;;;;;;;;;;;;;;7371111;19;1400;-64
2023/07/19 16:17:06;;;;;;;;;;;;;;;;;;7366691;19;1234;-64
2023/07/19 16:19:34;;;;;;;;;;;;;;;;;;7368376;19;2018;-64
2023/07/19 16:22:02;;;;;;;;;;;;;;;;;;7371516;19;1805;-64
2023/07/19 16:24:31;;;;;;;;;;;;;;;;;;7371678;19;1719;-62
2023/07/19 16:26:59;;;;;;;;;;;;;;;;;;7371045;19;1657;-62
2023/07/19 16:29:27;;;;;;;;;;;;;;;;;;7367907;19;1795;-63
2023/07/19 16:31:56;;;;;;;;;;;;;;;;;;7371750;19;1471;-63
2023/07/19 16:34:24;;;;;;;;;;;;;;;;;;7365425;19;1851;-63
2023/07/19 16:36:52;;;;;;;;;;;;;;;;;;7366063;19;1741;-64
2023/07/19 16:39:20;;;;;;;;;;;;;;;;;;7370315;19;1734;-64
2023/07/19 16:41:48;;;;;;;;;;;;;;;;;;7370777;19;1512;-64
2023/07/19 16:44:17;;;;;;;;;;;;;;;;;;7366831;19;814;-64
2023/07/19 16:46:45;;;;;;;;;;;;;;;;;;7366178;19;1247;-64
2023/07/19 16:49:13;;;;;;;;;;;;;;;;;;7366658;19;818;-64
2023/07/19 16:51:41;;;;;;;;;;;;;;;;;;7369778;19;1027;-63
2023/07/19 16:54:09;;;;;;;;;;;;;;;;;;7365337;19;1846;-64
2023/07/19 16:56:37;;;;;;;;;;;;;;;;;;7366612;19;1783;-64
2023/07/19 16:59:06;;;;;;;;;;;;;;;;;;7371146;19;1455;-63
2023/07/19 17:01:34;;;;;;;;;;;;;;;;;;7370957;19;1989;-64
2023/07/19 17:04:03;;;;;;;;;;;;;;;;;;7371190;19;1220;-65
2023/07/19 17:06:31;;;;;;;;;;;;;;;;;;7367014;19;1650;-64
2023/07/19 17:08:59;;;;;;;;;;;;;;;;;;7369731;19;1661;-64
2023/07/19 17:11:27;;;;;;;;;;;;;;;;;;7366772;19;929;-64
2023/07/19 17:13:55;;;;;;;;;;;;;;;;;;7364997;19;1871;-63